Time;durP1;ratioP1;P1;durP2;ratioP2;P2;SDS_P1;SDS_P2;PMS_P1;PMS_P2;Temp;Humidity;BMP_temperature;BMP_pressure;BME280_temperature;BME280_humidity;BME280_pressure;Samples;Min_cycle;Max_cycle;Signal;HPM_P1;HPM_P2
2023/08/11 00:01:19;;;;;;;5.37;4.60;;;18.00;99.90;;;;;;4956619;28;20479;-69
2023/08/11 00:03:46;;;;;;;5.23;4.73;;;18.00;99.90;;;;;;4951834;28;20475;-70
2023/08/11 00:06:13;;;;;;;6.43;4.50;;;18.00;99.90;;;;;;4950610;28;20491;-70
2023/08/11 00:08:40;;;;;;;10.43;4.60;;;17.90;99.90;;;;;;4949732;28;21211;-70
2023/08/11 00:11:07;;;;;;;5.17;4.67;;;17.90;99.90;;;;;;4948703;28;20487;-70
2023/08/11 00:13:34;;;;;;;7.80;5.20;;;17.80;99.90;;;;;;4949283;28;20483;-70
2023/08/11 00:16:04;;;;;;;4.67;4.27;;;17.80;99.90;;;;;;4952202;28;20500;-71
2023/08/11 00:18:31;;;;;;;5.40;4.70;;;17.70;99.90;;;;;;4949755;28;20551;-70
2023/08/11 00:21:00;;;;;;;5.93;5.30;;;17.70;99.90;;;;;;4950994;28;20562;-70
2023/08/11 00:23:26;;;;;;;4.55;4.10;;;17.70;99.90;;;;;;4948097;28;20471;-71
2023/08/11 00:25:53;;;;;;;5.47;4.40;;;17.60;99.90;;;;;;4952065;28;20623;-71
2023/08/11 00:28:20;;;;;;;9.30;5.13;;;17.60;99.90;;;;;;4950864;28;20490;-70
2023/08/11 00:30:48;;;;;;;7.00;5.27;;;17.60;99.90;;;;;;4952347;28;20579;-70
2023/08/11 00:33:18;;;;;;;6.57;4.67;;;17.60;99.90;;;;;;4949758;28;20491;-70
2023/08/11 00:35:45;;;;;;;9.40;5.87;;;17.60;99.90;;;;;;4952353;28;20568;-70
2023/08/11 00:38:12;;;;;;;9.47;5.07;;;17.60;99.90;;;;;;4953090;28;20574;-70
2023/08/11 00:40:39;;;;;;;6.33;4.80;;;17.60;99.90;;;;;;4949839;28;20495;-70
2023/08/11 00:43:06;;;;;;;8.30;4.83;;;17.60;99.90;;;;;;4949684;28;20524;-70
2023/08/11 00:45:33;;;;;;;14.57;5.60;;;17.70;99.90;;;;;;4947437;28;20486;-71
2023/08/11 00:48:00;;;;;;;10.47;5.17;;;17.70;99.90;;;;;;4959856;28;20479;-70
2023/08/11 00:50:29;;;;;;;5.87;4.67;;;17.70;99.90;;;;;;4945215;28;20576;-70
2023/08/11 00:53:00;;;;;;;6.33;4.60;;;17.70;99.90;;;;;;4960941;28;20479;-70
2023/08/11 00:55:28;;;;;;;7.23;4.50;;;17.70;99.90;;;;;;4935502;28;21707;-70
2023/08/11 00:57:55;;;;;;;13.90;5.07;;;17.70;99.90;;;;;;4950390;28;20632;-70
2023/08/11 01:00:24;;;;;;;103.63;9.37;;;;;;;;;;4966161;23;21096;-67
2023/08/11 01:02:51;;;;;;;4.50;4.00;;;17.60;99.90;;;;;;4998830;28;20530;-67
2023/08/11 01:05:20;;;;;;;9.50;4.47;;;17.40;99.90;;;;;;5009897;28;20526;-66
2023/08/11 01:08:03;;;;;;;5.20;4.53;;;17.30;99.90;;;;;;5009401;28;20901;-67
2023/08/11 01:10:46;;;;;;;19.43;5.73;;;17.30;99.90;;;;;;5003536;28;20492;-67
2023/08/11 01:13:18;;;;;;;6.30;5.20;;;17.10;99.90;;;;;;4997966;28;20472;-66
2023/08/11 01:15:52;;;;;;;5.70;4.77;;;16.80;99.90;;;;;;5010061;28;20841;-65
2023/08/11 01:18:20;;;;;;;5.53;4.90;;;16.60;99.90;;;;;;5009507;28;20480;-64
2023/08/11 01:20:52;;;;;;;8.17;5.13;;;16.60;99.90;;;;;;5009861;28;20590;-65
2023/08/11 01:23:22;;;;;;;5.50;4.77;;;16.50;99.90;;;;;;5008630;28;20488;-65
2023/08/11 01:25:49;;;;;;;7.70;5.30;;;16.60;99.90;;;;;;5008843;28;21096;-65
2023/08/11 01:28:16;;;;;;;14.23;5.00;;;16.60;99.90;;;;;;5009254;28;20495;-65
2023/08/11 01:30:43;;;;;;;10.03;4.83;;;16.70;99.90;;;;;;5008983;28;20479;-65
2023/08/11 01:33:10;;;;;;;9.90;5.17;;;16.70;99.90;;;;;;5010063;28;20498;-65
2023/08/11 01:35:37;;;;;;;12.33;5.47;;;16.90;99.90;;;;;;5011007;28;20475;-65
2023/08/11 01:38:04;;;;;;;13.03;4.90;;;16.90;99.90;;;;;;5010477;28;20566;-65
2023/08/11 01:40:33;;;;;;;5.57;4.67;;;16.90;99.90;;;;;;5007601;28;20880;-65
2023/08/11 01:43:03;;;;;;;8.70;4.73;;;17.00;99.90;;;;;;5010258;28;20551;-66
2023/08/11 01:45:30;;;;;;;10.07;5.60;;;17.00;99.90;;;;;;4980824;28;20556;-66
2023/08/11 01:47:58;;;;;;;6.27;4.80;;;17.10;99.90;;;;;;5007082;28;20841;-65
2023/08/11 01:50:27;;;;;;;6.80;4.47;;;17.10;99.90;;;;;;5009955;28;20502;-65
2023/08/11 01:52:55;;;;;;;5.23;4.73;;;17.10;99.90;;;;;;5009824;28;20539;-65
2023/08/11 01:55:24;;;;;;;6.70;5.57;;;17.20;99.90;;;;;;5008835;28;20919;-66
2023/08/11 01:57:53;;;;;;;6.37;4.70;;;17.20;99.90;;;;;;5007591;28;20501;-65
2023/08/11 02:00:20;;;;;;;5.60;5.10;;;17.20;99.90;;;;;;5007944;28;20581;-65
2023/08/11 02:02:48;;;;;;;4.80;4.20;;;17.20;99.90;;;;;;5005091;28;20489;-65
2023/08/11 02:05:16;;;;;;;12.77;5.47;;;17.20;99.90;;;;;;4998707;28;20512;-67
2023/08/11 02:07:44;;;;;;;4.87;4.47;;;17.10;99.90;;;;;;5001848;28;20722;-67
2023/08/11 02:10:11;;;;;;;5.43;4.60;;;17.00;99.90;;;;;;5003296;28;20831;-67
2023/08/11 02:12:39;;;;;;;5.57;4.43;;;17.00;99.90;;;;;;5007759;28;20483;-67
2023/08/11 02:15:10;;;;;;;7.13;5.00;;;16.90;99.90;;;;;;5005985;28;20921;-67
2023/08/11 02:17:38;;;;;;;8.10;5.00;;;16.80;99.90;;;;;;5006432;28;20489;-67
2023/08/11 02:20:16;;;;;;;5.67;4.03;;;16.80;99.90;;;;;;4997871;28;20568;-67
2023/08/11 02:22:43;;;;;;;5.40;3.77;;;16.70;99.90;;;;;;5005360;28;20927;-67
2023/08/11 02:25:10;;;;;;;3.90;3.53;;;16.60;99.90;;;;;;5003041;28;20477;-65
2023/08/11 02:27:37;;;;;;;5.60;5.10;;;16.60;99.90;;;;;;5004383;28;20593;-65
2023/08/11 02:30:06;;;;;;;7.77;5.37;;;16.60;99.90;;;;;;5001027;28;20551;-66
2023/08/11 02:32:34;;;;;;;4.90;4.50;;;16.60;99.90;;;;;;4993660;28;20481;-65
2023/08/11 02:35:01;;;;;;;6.10;5.03;;;16.60;99.90;;;;;;5009331;28;20527;-65
2023/08/11 02:37:29;;;;;;;10.43;5.27;;;16.60;99.90;;;;;;4998749;28;20875;-66
2023/08/11 02:39:56;;;;;;;6.30;4.57;;;16.60;99.90;;;;;;5003571;28;20507;-66
2023/08/11 02:42:24;;;;;;;5.67;4.10;;;16.50;99.90;;;;;;5004700;28;20484;-66
2023/08/11 02:44:50;;;;;;;4.80;4.33;;;16.50;99.90;;;;;;5007251;28;20936;-65
2023/08/11 02:47:18;;;;;;;11.00;5.50;;;16.40;99.90;;;;;;5003964;28;20489;-66
2023/08/11 02:49:46;;;;;;;6.03;4.77;;;16.40;99.90;;;;;;4995647;28;20559;-66
2023/08/11 02:52:13;;;;;;;6.60;4.60;;;16.40;99.90;;;;;;5007832;28;20572;-66
2023/08/11 02:54:40;;;;;;;5.67;4.40;;;16.40;99.90;;;;;;5009900;28;20694;-66
2023/08/11 02:57:07;;;;;;;26.67;6.33;;;16.30;99.90;;;;;;5008143;28;20941;-66
2023/08/11 02:59:34;;;;;;;5.37;4.50;;;16.30;99.90;;;;;;5008552;28;20487;-65
2023/08/11 03:02:02;;;;;;;5.63;4.00;;;16.30;99.90;;;;;;4983321;28;20887;-66
2023/08/11 03:04:29;;;;;;;5.87;4.63;;;16.30;99.90;;;;;;5006700;28;20477;-66
2023/08/11 03:06:57;;;;;;;26.17;5.53;;;16.20;99.90;;;;;;4995525;28;20482;-66
2023/08/11 03:09:24;;;;;;;4.53;4.13;;;16.20;99.90;;;;;;5008374;28;20484;-66
2023/08/11 03:11:51;;;;;;;5.37;4.37;;;16.20;99.90;;;;;;5007543;28;20521;-65
2023/08/11 03:14:18;;;;;;;7.10;4.40;;;16.20;99.90;;;;;;5008689;28;20496;-66
2023/08/11 03:16:45;;;;;;;12.23;5.40;;;16.20;99.90;;;;;;5000619;28;20488;-65
2023/08/11 03:19:12;;;;;;;5.33;4.83;;;16.20;99.90;;;;;;5006612;28;20484;-65
2023/08/11 03:21:39;;;;;;;4.73;4.20;;;16.20;99.90;;;;;;5007041;28;20560;-66
2023/08/11 03:24:08;;;;;;;6.53;4.73;;;16.20;99.90;;;;;;5004079;28;20492;-66
2023/08/11 03:26:35;;;;;;;7.20;4.53;;;16.20;99.90;;;;;;5009371;28;20494;-67
2023/08/11 03:29:02;;;;;;;7.63;5.10;;;16.20;99.90;;;;;;4997970;28;20497;-67
2023/08/11 03:31:29;;;;;;;7.73;4.70;;;16.20;99.90;;;;;;5011533;28;20572;-67
2023/08/11 03:33:56;;;;;;;7.50;4.60;;;16.10;99.90;;;;;;4994456;28;20485;-67
2023/08/11 03:36:23;;;;;;;10.77;4.37;;;16.20;99.90;;;;;;5007436;28;20565;-67
2023/08/11 03:38:50;;;;;;;5.10;3.83;;;15.90;99.90;;;;;;5005495;28;20516;-67
2023/08/11 03:41:19;;;;;;;9.30;4.57;;;15.80;99.90;;;;;;5006264;28;20543;-67
2023/08/11 03:43:47;;;;;;;5.27;4.57;;;15.80;99.90;;;;;;5004111;28;20928;-67
2023/08/11 03:46:14;;;;;;;6.13;4.20;;;15.80;99.90;;;;;;5005741;28;20486;-67
2023/08/11 03:48:42;;;;;;;5.70;4.67;;;15.70;99.90;;;;;;5006052;28;20564;-67
2023/08/11 03:51:09;;;;;;;6.97;4.70;;;15.80;99.90;;;;;;5004227;28;21002;-68
2023/08/11 03:53:37;;;;;;;5.33;4.33;;;15.80;99.90;;;;;;4976746;28;20476;-67
2023/08/11 03:56:07;;;;;;;4.20;3.63;;;15.80;99.90;;;;;;5005089;28;20484;-67
2023/08/11 03:58:36;;;;;;;6.47;4.37;;;15.90;99.90;;;;;;5004533;28;20863;-67
2023/08/11 04:01:04;;;;;;;4.90;4.10;;;15.80;99.90;;;;;;5003331;28;20492;-67
2023/08/11 04:03:31;;;;;;;6.37;4.60;;;15.80;99.90;;;;;;5005467;28;20483;-67
2023/08/11 04:05:58;;;;;;;5.37;4.67;;;15.90;99.90;;;;;;4993579;28;21230;-67
2023/08/11 04:08:26;;;;;;;9.90;4.70;;;15.70;99.90;;;;;;5007625;28;20584;-67
2023/08/11 04:10:53;;;;;;;6.07;5.30;;;15.70;99.90;;;;;;5002725;28;20489;-67
2023/08/11 04:13:20;;;;;;;5.90;4.40;;;15.60;99.90;;;;;;4999615;28;20803;-67
2023/08/11 04:15:49;;;;;;;6.30;4.60;;;15.60;99.90;;;;;;5007735;28;20563;-67
2023/08/11 04:18:15;;;;;;;4.97;4.43;;;15.60;99.90;;;;;;5013906;28;20478;-67
2023/08/11 04:20:42;;;;;;;4.93;4.03;;;15.60;99.90;;;;;;4999580;28;20478;-67
2023/08/11 04:23:10;;;;;;;10.13;5.30;;;15.60;99.90;;;;;;5007907;28;20484;-68
2023/08/11 04:25:36;;;;;;;6.07;4.40;;;15.60;99.90;;;;;;5007159;28;20604;-68
2023/08/11 04:28:04;;;;;;;4.23;3.83;;;15.70;99.90;;;;;;5003198;28;20482;-67
2023/08/11 04:30:32;;;;;;;6.93;4.20;;;15.70;99.90;;;;;;5011572;28;20562;-68
2023/08/11 04:33:00;;;;;;;4.67;4.17;;;15.70;99.90;;;;;;5002914;28;20724;-68
2023/08/11 04:35:27;;;;;;;6.03;4.30;;;15.60;99.90;;;;;;5003923;28;20965;-67
2023/08/11 04:37:54;;;;;;;9.13;4.40;;;15.60;99.90;;;;;;5004864;28;20505;-66
2023/08/11 04:40:22;;;;;;;6.53;4.43;;;15.60;99.90;;;;;;5004127;28;20928;-66
2023/08/11 04:42:49;;;;;;;12.83;5.03;;;15.60;99.90;;;;;;4999757;28;20977;-67
2023/08/11 04:45:18;;;;;;;5.00;4.50;;;15.60;99.90;;;;;;5003731;28;20580;-66
2023/08/11 04:47:45;;;;;;;7.00;4.43;;;15.50;99.90;;;;;;5005327;28;20477;-66
2023/08/11 04:50:14;;;;;;;5.20;4.50;;;15.50;99.90;;;;;;5007549;28;20863;-66
2023/08/11 04:52:41;;;;;;;17.63;4.53;;;15.50;99.90;;;;;;5006750;28;20506;-66
2023/08/11 04:55:08;;;;;;;5.67;4.40;;;15.50;99.90;;;;;;5008486;28;20575;-66
2023/08/11 04:57:35;;;;;;;4.23;3.83;;;15.50;99.90;;;;;;5004762;28;20616;-66
2023/08/11 05:00:03;;;;;;;5.47;4.47;;;15.50;99.90;;;;;;5006739;28;20923;-67
2023/08/11 05:02:29;;;;;;;5.13;4.60;;;15.50;99.90;;;;;;5007718;28;20485;-66
2023/08/11 05:04:57;;;;;;;5.20;3.70;;;15.50;99.90;;;;;;5004416;28;20666;-67
2023/08/11 05:07:25;;;;;;;4.97;3.63;;;15.40;99.90;;;;;;4994572;28;20509;-67
2023/08/11 05:09:52;;;;;;;6.90;4.70;;;15.30;99.90;;;;;;5004571;28;20569;-67
2023/08/11 05:12:19;;;;;;;4.10;3.80;;;;;;;;;;5007478;28;21161;-67
2023/08/11 05:14:47;;;;;;;5.73;5.17;;;15.30;99.90;;;;;;5004382;28;20489;-67
2023/08/11 05:17:14;;;;;;;10.60;4.97;;;15.20;99.90;;;;;;5004246;28;20563;-67
2023/08/11 05:19:41;;;;;;;6.67;5.60;;;15.20;99.90;;;;;;5003935;28;20482;-67
2023/08/11 05:22:08;;;;;;;8.47;5.03;;;15.30;99.90;;;;;;4999119;28;20482;-67
2023/08/11 05:24:37;;;;;;;7.37;5.20;;;15.30;99.90;;;;;;5006307;28;20485;-67
2023/08/11 05:27:05;;;;;;;5.70;5.20;;;15.50;99.90;;;;;;5005806;28;20547;-67
2023/08/11 05:29:32;;;;;;;7.73;5.87;;;15.60;99.90;;;;;;5009199;28;20693;-67
2023/08/11 05:31:59;;;;;;;6.40;5.37;;;15.70;99.90;;;;;;5008809;28;20488;-67
2023/08/11 05:34:26;;;;;;;7.33;5.83;;;15.80;99.90;;;;;;5000627;28;20862;-67
2023/08/11 05:36:53;;;;;;;10.70;5.53;;;16.00;99.90;;;;;;5006057;28;20700;-67
2023/08/11 05:39:20;;;;;;;9.83;5.73;;;16.00;99.90;;;;;;5005189;28;20523;-67
2023/08/11 05:41:48;;;;;;;18.30;5.20;;;16.10;99.90;;;;;;5005491;28;20921;-67
2023/08/11 05:44:15;;;;;;;7.10;6.10;;;16.10;99.90;;;;;;5004915;28;20855;-67
2023/08/11 05:46:42;;;;;;;7.30;6.07;;;16.20;99.90;;;;;;5004515;28;20479;-67
2023/08/11 05:49:09;;;;;;;16.70;5.50;;;16.20;99.90;;;;;;5002619;28;20505;-67
2023/08/11 05:51:36;;;;;;;8.30;5.97;;;16.30;99.90;;;;;;5000970;28;20654;-67
2023/08/11 05:54:03;;;;;;;5.97;5.13;;;16.30;99.90;;;;;;5005033;28;20580;-67
2023/08/11 05:56:30;;;;;;;8.43;5.80;;;16.40;99.90;;;;;;5005499;28;20896;-67
2023/08/11 05:58:58;;;;;;;6.90;6.30;;;16.50;99.90;;;;;;5003344;28;20564;-68
2023/08/11 06:01:25;;;;;;;9.10;6.80;;;16.50;99.90;;;;;;5003681;28;20572;-68
2023/08/11 06:03:52;;;;;;;8.17;6.37;;;16.70;99.90;;;;;;4999198;28;20481;-68
2023/08/11 06:06:19;;;;;;;7.20;6.07;;;16.70;99.90;;;;;;4999719;28;20482;-68
2023/08/11 06:08:46;;;;;;;7.50;5.93;;;16.80;99.90;;;;;;5005670;28;20492;-67
2023/08/11 06:11:13;;;;;;;10.50;7.30;;;16.80;99.90;;;;;;5000148;28;20812;-68
2023/08/11 06:13:40;;;;;;;8.50;7.10;;;16.90;99.90;;;;;;5006138;28;20942;-67
2023/08/11 06:16:08;;;;;;;8.83;7.50;;;17.00;99.90;;;;;;5006667;28;20576;-67
2023/08/11 06:18:35;;;;;;;11.40;7.60;;;17.20;99.90;;;;;;5003358;28;21070;-67
2023/08/11 06:21:04;;;;;;;13.40;8.37;;;17.30;99.90;;;;;;4998670;28;20883;-67
2023/08/11 06:23:30;;;;;;;10.63;7.70;;;17.50;99.90;;;;;;5004163;28;20923;-67
2023/08/11 06:25:58;;;;;;;12.63;8.50;;;17.70;99.90;;;;;;5009148;28;20509;-66
2023/08/11 06:28:25;;;;;;;13.93;7.17;;;17.90;99.90;;;;;;5010806;28;20484;-67
2023/08/11 06:30:53;;;;;;;9.37;7.03;;;17.90;99.90;;;;;;5015370;28;20508;-67
2023/08/11 06:33:21;;;;;;;11.97;7.87;;;18.10;99.90;;;;;;5012027;28;20498;-66
2023/08/11 06:35:48;;;;;;;8.73;7.60;;;18.20;99.90;;;;;;5012131;28;20555;-66
2023/08/11 06:38:15;;;;;;;20.90;7.63;;;18.40;99.90;;;;;;4982458;28;20568;-67
2023/08/11 06:40:44;;;;;;;11.77;7.43;;;18.40;99.90;;;;;;5014132;28;20952;-67
2023/08/11 06:43:11;;;;;;;9.20;7.17;;;18.60;99.90;;;;;;5006687;28;20468;-67
2023/08/11 06:45:38;;;;;;;9.10;6.90;;;18.70;99.90;;;;;;5013788;28;20550;-67
2023/08/11 06:48:05;;;;;;;19.17;7.63;;;18.90;99.90;;;;;;5010890;28;20481;-66
2023/08/11 06:50:33;;;;;;;10.13;6.87;;;18.90;99.90;;;;;;5004671;28;20913;-66
2023/08/11 06:53:01;;;;;;;12.13;6.60;;;19.10;99.90;;;;;;5010580;28;20487;-66
2023/08/11 06:55:28;;;;;;;8.70;6.20;;;19.30;99.90;;;;;;5009734;28;20555;-66
2023/08/11 06:57:55;;;;;;;26.43;7.20;;;19.60;99.90;;;;;;5007457;28;20563;-66
2023/08/11 07:00:22;;;;;;;6.93;5.90;;;19.60;99.90;;;;;;5011229;28;20564;-65
2023/08/11 07:02:49;;;;;;;8.50;6.10;;;20.00;99.90;;;;;;5011456;28;20497;-65
2023/08/11 07:05:15;;;;;;;10.40;5.93;;;20.40;99.90;;;;;;5011022;28;20600;-67
2023/08/11 07:07:44;;;;;;;15.97;5.53;;;20.80;99.90;;;;;;4995662;28;20508;-67
2023/08/11 07:10:12;;;;;;;7.67;5.73;;;21.10;99.90;;;;;;5005988;28;20838;-66
2023/08/11 07:12:39;;;;;;;11.13;6.00;;;21.30;99.90;;;;;;5015092;28;20473;-67
2023/08/11 07:15:07;;;;;;;7.83;5.00;;;21.50;99.90;;;;;;5009395;28;20489;-66
2023/08/11 07:17:34;;;;;;;10.10;5.00;;;21.80;99.90;;;;;;5009554;28;20576;-67
2023/08/11 07:20:01;;;;;;;6.23;5.27;;;22.00;99.90;;;;;;5007941;28;20573;-67
2023/08/11 07:22:28;;;;;;;7.70;5.17;;;22.20;99.90;;;;;;5001740;28;20914;-67
2023/08/11 07:24:56;;;;;;;4.97;4.47;;;22.50;99.90;;;;;;5009732;28;20487;-67
2023/08/11 07:27:23;;;;;;;15.23;5.30;;;22.80;99.40;;;;;;5005311;28;20553;-66
2023/08/11 07:29:50;;;;;;;14.23;5.57;;;23.00;99.90;;;;;;5011525;28;20849;-67
2023/08/11 07:32:17;;;;;;;5.20;4.70;;;23.10;99.90;;;;;;5013045;28;20602;-67
2023/08/11 07:34:44;;;;;;;6.73;4.67;;;23.30;99.90;;;;;;5009987;28;20571;-67
2023/08/11 07:37:11;;;;;;;5.07;3.90;;;23.40;99.90;;;;;;5011123;28;20566;-67
2023/08/11 07:39:38;;;;;;;4.87;4.33;;;23.60;99.10;;;;;;5007339;28;20477;-67
2023/08/11 07:42:06;;;;;;;5.43;4.30;;;23.60;99.30;;;;;;5009564;28;21135;-67
2023/08/11 07:44:34;;;;;;;10.43;6.00;;;23.50;97.80;;;;;;5010712;28;20556;-67
2023/08/11 07:47:02;;;;;;;5.13;4.50;;;23.70;99.60;;;;;;5009074;28;20502;-66
2023/08/11 07:49:29;;;;;;;6.23;3.93;;;23.80;98.20;;;;;;5007486;28;20831;-66
2023/08/11 07:51:57;;;;;;;5.30;4.60;;;24.00;98.10;;;;;;5005399;28;20593;-67
2023/08/11 07:54:24;;;;;;;7.17;4.30;;;24.00;97.50;;;;;;5006825;28;20485;-66
2023/08/11 07:56:51;;;;;;;4.73;4.07;;;24.20;99.10;;;;;;5010538;28;20484;-67
2023/08/11 07:59:19;;;;;;;5.87;4.90;;;24.40;97.10;;;;;;5003704;28;20483;-67
2023/08/11 08:01:46;;;;;;;4.40;4.00;;;24.80;96.90;;;;;;5009084;28;20561;-67
2023/08/11 08:04:13;;;;;;;5.03;3.97;;;24.80;96.70;;;;;;5008060;28;20989;-66
2023/08/11 08:06:45;;;;;;;8.50;5.43;;;24.80;97.70;;;;;;5012099;28;20457;-66
2023/08/11 08:09:13;;;;;;;5.27;4.00;;;24.80;96.40;;;;;;5005364;28;20930;-66
2023/08/11 08:11:42;;;;;;;18.33;5.20;;;24.90;96.70;;;;;;5007321;28;20532;-67
2023/08/11 08:14:10;;;;;;;6.87;4.60;;;25.10;97.10;;;;;;5003882;28;20568;-66
2023/08/11 08:16:38;;;;;;;5.20;4.70;;;25.10;96.40;;;;;;5007236;28;20474;-66
2023/08/11 08:19:06;;;;;;;6.10;4.50;;;25.10;96.30;;;;;;4995153;28;20853;-67
2023/08/11 08:21:33;;;;;;;7.37;3.73;;;25.40;96.40;;;;;;5005449;28;20890;-66
2023/08/11 08:24:00;;;;;;;10.03;4.10;;;25.60;96.40;;;;;;5013241;28;20567;-66
2023/08/11 08:26:27;;;;;;;7.03;4.30;;;25.80;96.30;;;;;;5006566;28;20826;-66
2023/08/11 08:28:54;;;;;;;4.27;3.87;;;26.00;96.20;;;;;;5010781;28;20950;-66
2023/08/11 08:31:21;;;;;;;4.10;3.60;;;26.20;95.70;;;;;;4994372;28;20539;-66
2023/08/11 08:33:49;;;;;;;5.23;4.50;;;26.50;95.60;;;;;;5006906;28;20845;-66
2023/08/11 08:36:16;;;;;;;4.90;4.50;;;26.60;94.30;;;;;;5002387;28;20452;-66
2023/08/11 08:38:43;;;;;;;4.40;3.80;;;26.80;95.20;;;;;;5006078;28;20574;-66
2023/08/11 08:41:10;;;;;;;7.83;4.50;;;26.90;94.60;;;;;;5005432;28;20580;-66
2023/08/11 08:43:37;;;;;;;4.30;3.90;;;26.90;94.50;;;;;;5008240;28;20561;-65
2023/08/11 08:46:05;;;;;;;4.60;4.20;;;26.90;94.00;;;;;;4999013;28;20559;-65
2023/08/11 08:48:39;;;;;;;4.40;4.00;;;26.80;93.70;;;;;;5006616;28;20460;-65
2023/08/11 08:51:08;;;;;;;6.53;3.93;;;26.80;94.80;;;;;;5007305;28;20536;-65
2023/08/11 08:53:35;;;;;;;8.80;4.80;;;27.00;94.50;;;;;;4987841;28;20473;-65
2023/08/11 08:56:04;;;;;;;5.30;4.50;;;;;;;;;;5007832;28;20580;-65
2023/08/11 08:58:31;;;;;;;4.80;4.33;;;27.00;95.30;;;;;;5002393;28;20456;-65
2023/08/11 09:01:01;;;;;;;12.50;4.30;;;27.10;94.30;;;;;;5005829;28;20536;-66
2023/08/11 09:03:29;;;;;;;4.53;4.13;;;27.10;93.70;;;;;;5004756;28;20504;-66
2023/08/11 09:05:57;;;;;;;5.20;4.23;;;26.90;93.70;;;;;;5011839;28;20517;-65
2023/08/11 09:08:26;;;;;;;4.17;3.77;;;26.80;92.90;;;;;;5006247;28;20490;-66
2023/08/11 09:10:53;;;;;;;4.20;3.80;;;26.70;94.70;;;;;;5005544;28;20465;-66
2023/08/11 09:13:21;;;;;;;5.97;4.47;;;26.70;93.20;;;;;;4994824;28;20452;-66
2023/08/11 09:15:48;;;;;;;4.60;4.20;;;26.70;93.60;;;;;;5006936;28;20477;-66
2023/08/11 09:18:16;;;;;;;5.50;4.20;;;26.80;93.10;;;;;;5003122;28;20911;-65
2023/08/11 09:20:46;;;;;;;4.53;3.90;;;26.90;94.30;;;;;;4996242;28;20512;-66
2023/08/11 09:23:13;;;;;;;4.87;4.20;;;27.20;94.60;;;;;;5003700;28;20484;-65
2023/08/11 09:25:42;;;;;;;15.77;4.57;;;27.30;93.30;;;;;;4995352;28;20918;-65
2023/08/11 09:28:09;;;;;;;4.97;4.20;;;27.30;92.80;;;;;;5005280;28;20598;-65
2023/08/11 09:30:36;;;;;;;6.23;4.30;;;27.20;93.00;;;;;;5008601;28;20472;-65
2023/08/11 09:33:04;;;;;;;4.63;4.20;;;27.30;93.90;;;;;;5006569;28;20936;-65
2023/08/11 09:35:31;;;;;;;16.50;5.47;;;27.50;95.00;;;;;;4988678;28;20497;-64
2023/08/11 09:37:58;;;;;;;5.60;4.83;;;27.50;95.30;;;;;;5004362;28;20942;-66
2023/08/11 09:40:25;;;;;;;8.70;4.50;;;27.80;92.50;;;;;;5004641;28;20904;-66
2023/08/11 09:42:56;;;;;;;7.57;4.77;;;27.80;93.30;;;;;;5007670;28;20477;-66
2023/08/11 09:45:23;;;;;;;4.80;4.40;;;27.90;93.80;;;;;;5007002;28;20455;-65
2023/08/11 09:47:51;;;;;;;4.80;4.33;;;27.80;92.60;;;;;;5005588;28;20917;-66
2023/08/11 09:50:18;;;;;;;4.63;4.20;;;27.70;92.90;;;;;;5006982;28;20567;-66
2023/08/11 09:52:45;;;;;;;8.00;4.10;;;27.50;91.80;;;;;;5005303;28;20452;-65
2023/08/11 09:55:14;;;;;;;4.60;4.20;;;27.50;92.60;;;;;;4999597;28;20580;-66
2023/08/11 09:57:42;;;;;;;9.10;4.90;;;27.80;92.40;;;;;;5008427;28;20454;-66
2023/08/11 10:00:12;;;;;;;6.20;4.60;;;27.80;92.10;;;;;;4999925;28;20488;-66
2023/08/11 10:02:46;;;;;;;5.03;4.53;;;27.80;92.50;;;;;;5003367;28;20487;-66
2023/08/11 10:05:16;;;;;;;4.60;4.20;;;28.20;92.80;;;;;;5005759;28;20449;-66
2023/08/11 10:07:46;;;;;;;6.20;4.37;;;28.20;93.20;;;;;;5005168;28;20902;-65
2023/08/11 10:10:17;;;;;;;6.17;4.50;;;28.70;91.60;;;;;;5005957;28;20790;-66
2023/08/11 10:12:48;;;;;;;4.37;4.07;;;28.70;91.20;;;;;;5004780;28;20513;-67
2023/08/11 10:15:22;;;;;;;4.50;4.20;;;28.90;90.80;;;;;;5011170;28;20561;-66
2023/08/11 10:17:49;;;;;;;4.70;3.93;;;28.90;90.90;;;;;;5006823;28;20473;-66
2023/08/11 10:20:17;;;;;;;3.97;3.57;;;28.90;92.10;;;;;;5001348;28;20512;-67
2023/08/11 10:22:44;;;;;;;5.60;4.60;;;29.00;91.90;;;;;;5007524;28;20580;-66
2023/08/11 10:25:12;;;;;;;5.03;4.10;;;29.10;90.50;;;;;;5003178;28;20922;-66
2023/08/11 10:27:40;;;;;;;5.33;4.17;;;29.10;90.70;;;;;;4986408;28;20452;-66
2023/08/11 10:30:09;;;;;;;5.90;4.10;;;29.20;91.10;;;;;;4999739;28;20963;-66
2023/08/11 10:32:39;;;;;;;5.33;4.03;;;29.30;91.70;;;;;;5002918;28;20460;-66
2023/08/11 10:35:08;;;;;;;5.23;3.90;;;29.30;90.40;;;;;;4973413;28;20540;-66
2023/08/11 10:37:35;;;;;;;5.30;3.90;;;29.30;89.30;;;;;;4973779;28;20496;-66
2023/08/11 10:40:04;;;;;;;4.30;3.90;;;29.30;90.70;;;;;;5005280;28;20461;-65
2023/08/11 10:42:31;;;;;;;4.93;4.37;;;29.40;90.80;;;;;;5005240;28;21326;-65
2023/08/11 10:45:08;;;;;;;4.47;4.07;;;29.40;89.50;;;;;;5008268;28;20842;-66
2023/08/11 10:47:38;;;;;;;4.07;3.77;;;29.50;88.40;;;;;;5005515;28;20766;-66
2023/08/11 10:50:09;;;;;;;3.93;3.50;;;29.50;87.80;;;;;;5005977;28;20452;-66
2023/08/11 10:52:36;;;;;;;4.17;3.87;;;29.50;90.00;;;;;;5002443;28;20558;-66
2023/08/11 10:55:04;;;;;;;6.10;3.27;;;29.50;89.80;;;;;;5003049;28;20452;-66
2023/08/11 10:57:31;;;;;;;4.37;3.97;;;29.50;89.90;;;;;;5009204;28;20492;-66
2023/08/11 10:59:58;;;;;;;3.67;3.37;;;29.60;91.90;;;;;;5007133;28;20932;-65
2023/08/11 11:02:26;;;;;;;10.80;4.23;;;;;;;;;;5004668;28;20990;-67
2023/08/11 11:04:54;;;;;;;9.40;4.73;;;;;;;;;;5007398;28;20491;-66
2023/08/11 11:07:23;;;;;;;5.10;4.23;;;29.70;88.20;;;;;;5002230;28;20533;-66
2023/08/11 11:09:52;;;;;;;4.90;4.50;;;29.90;90.80;;;;;;5005630;28;20483;-66
2023/08/11 11:12:19;;;;;;;4.50;3.93;;;29.90;90.60;;;;;;5005857;28;20482;-67
2023/08/11 11:14:46;;;;;;;3.90;3.60;;;29.80;88.70;;;;;;5008323;28;20504;-66
2023/08/11 11:17:14;;;;;;;3.60;3.23;;;29.80;89.60;;;;;;5009734;28;20535;-66
2023/08/11 11:19:41;;;;;;;3.87;3.47;;;29.80;89.90;;;;;;5004986;28;20447;-65
2023/08/11 11:22:10;;;;;;;4.53;4.00;;;30.00;86.80;;;;;;5007736;28;20461;-66
2023/08/11 11:24:38;;;;;;;5.20;4.10;;;29.80;84.30;;;;;;5009364;28;20820;-66
2023/08/11 11:27:05;;;;;;;4.30;3.33;;;29.80;87.40;;;;;;4998331;28;20479;-67
2023/08/11 11:29:32;;;;;;;3.80;3.50;;;29.80;86.30;;;;;;5011865;28;20483;-66
2023/08/11 11:32:06;;;;;;;3.33;3.03;;;29.50;84.20;;;;;;5008663;28;20945;-64
2023/08/11 11:34:36;;;;;;;4.50;4.10;;;29.50;88.90;;;;;;5009935;28;20447;-66
2023/08/11 11:37:03;;;;;;;4.50;4.10;;;29.50;90.10;;;;;;5009181;28;20481;-68
2023/08/11 11:39:32;;;;;;;4.07;3.60;;;29.40;85.30;;;;;;5006720;28;20491;-66
2023/08/11 11:42:07;;;;;;;4.07;3.67;;;29.50;86.50;;;;;;5009793;28;20885;-66
2023/08/11 11:44:35;;;;;;;9.50;3.80;;;29.80;88.10;;;;;;5001050;28;20465;-66
2023/08/11 11:47:02;;;;;;;3.50;3.23;;;29.70;89.80;;;;;;5006482;28;20459;-67
2023/08/11 11:49:31;;;;;;;3.63;3.27;;;29.80;84.20;;;;;;4994947;28;20539;-68
2023/08/11 11:51:59;;;;;;;4.03;3.43;;;29.90;86.30;;;;;;5005649;28;20459;-67
2023/08/11 11:54:29;;;;;;;9.23;4.30;;;30.20;83.70;;;;;;5005256;28;21149;-67
2023/08/11 11:56:58;;;;;;;4.97;3.83;;;30.20;85.40;;;;;;4992302;28;20460;-67
2023/08/11 11:59:26;;;;;;;3.67;3.33;;;30.10;83.90;;;;;;5004865;28;20758;-67
2023/08/11 12:01:53;;;;;;;4.33;3.40;;;30.20;82.20;;;;;;5005765;28;20455;-67
2023/08/11 12:04:20;;;;;;;8.33;4.20;;;30.20;88.40;;;;;;5007148;28;20560;-66
2023/08/11 12:06:48;;;;;;;4.00;3.60;;;30.20;88.30;;;;;;5002011;28;21301;-65
2023/08/11 12:09:16;;;;;;;4.93;3.83;;;30.10;82.90;;;;;;5002307;28;20995;-66
2023/08/11 12:11:43;;;;;;;3.93;3.50;;;30.20;89.30;;;;;;4980345;28;20451;-66
2023/08/11 12:14:14;;;;;;;4.33;3.90;;;30.30;85.10;;;;;;4996748;28;20805;-66
2023/08/11 12:16:42;;;;;;;4.90;4.50;;;30.30;83.90;;;;;;5009162;28;21854;-65
2023/08/11 12:19:09;;;;;;;4.63;3.70;;;30.30;83.60;;;;;;5008009;28;20492;-65
2023/08/11 12:21:37;;;;;;;5.40;4.40;;;30.10;85.10;;;;;;5007696;28;20933;-66
2023/08/11 12:24:09;;;;;;;7.87;4.10;;;30.40;90.40;;;;;;5010489;28;20557;-66
2023/08/11 12:26:36;;;;;;;6.40;3.97;;;30.40;90.80;;;;;;5008713;28;20489;-65
2023/08/11 12:29:05;;;;;;;4.93;3.93;;;;;;;;;;4996529;28;20490;-65
2023/08/11 12:31:33;;;;;;;5.73;3.93;;;30.90;86.80;;;;;;5005982;28;20475;-66
2023/08/11 12:34:00;;;;;;;4.77;4.17;;;;;;;;;;5008662;28;20825;-66
2023/08/11 12:36:27;;;;;;;4.20;3.80;;;31.20;86.20;;;;;;5008018;28;20562;-66
2023/08/11 12:38:54;;;;;;;9.80;3.80;;;31.30;81.70;;;;;;5008657;28;20479;-64
2023/08/11 12:41:21;;;;;;;3.33;3.03;;;31.40;81.20;;;;;;5009945;28;20491;-67
2023/08/11 12:43:48;;;;;;;4.10;3.50;;;31.40;83.30;;;;;;5008051;28;20446;-66
2023/08/11 12:46:15;;;;;;;4.40;4.00;;;31.10;80.10;;;;;;5004665;28;20482;-65
2023/08/11 12:48:44;;;;;;;3.57;3.23;;;31.00;87.90;;;;;;5009213;28;21957;-66
2023/08/11 12:51:11;;;;;;;3.77;3.47;;;31.10;82.70;;;;;;5009169;28;20562;-66